createdAt,value
2023-02-18T00:02:38.885Z,86.10
2023-02-18T00:05:43.222Z,126.22
2023-02-18T00:08:48.933Z,73.82
2023-02-18T00:14:57.607Z,134.82
2023-02-18T00:18:01.820Z,55.08
2023-02-18T00:21:08.444Z,63.08
2023-02-18T00:24:18.514Z,84.20
2023-02-18T00:27:22.840Z,49.10
2023-02-18T00:30:29.466Z,51.78
2023-02-18T00:33:33.714Z,49.42
2023-02-18T00:36:41.377Z,48.17
2023-02-18T00:39:45.931Z,44.92
2023-02-18T00:42:50.621Z,42.08
2023-02-18T00:45:55.653Z,40.13
2023-02-18T00:49:00.096Z,44.00
2023-02-18T00:52:04.641Z,39.45
2023-02-18T00:55:10.483Z,49.08
2023-02-18T00:58:16.038Z,41.50
2023-02-18T01:01:20.955Z,42.17
2023-02-18T01:04:24.914Z,43.53
2023-02-18T01:07:29.297Z,38.65
2023-02-18T01:10:35.864Z,197.48
2023-02-18T01:13:43.195Z,56.28
2023-02-18T01:16:47.458Z,57.88
2023-02-18T01:19:51.865Z,38.08
2023-02-18T01:22:56.300Z,45.38
2023-02-18T01:26:00.801Z,42.25
2023-02-18T01:29:05.458Z,68.50
2023-02-18T01:32:09.959Z,45.70
2023-02-18T01:35:16.982Z,43.45
2023-02-18T01:38:21.253Z,38.53
2023-02-18T01:41:26.121Z,39.20
2023-02-18T01:44:35.028Z,42.75
2023-02-18T01:47:39.410Z,41.72
2023-02-18T01:50:51.219Z,51.25
2023-02-18T01:54:14.433Z,48.15
2023-02-18T01:57:24.154Z,40.13
2023-02-18T02:00:28.574Z,37.33
2023-02-18T02:03:32.361Z,41.13
2023-02-18T02:06:36.931Z,42.88
2023-02-18T02:09:42.751Z,31.17
2023-02-18T02:17:09.983Z,30.67
2023-02-18T02:20:50.100Z,34.72
2023-02-18T02:24:24.896Z,39.20
2023-02-18T02:28:02.937Z,26.60
2023-02-18T02:31:27.451Z,26.58
2023-02-18T02:35:00.198Z,32.20
2023-02-18T02:38:57.027Z,31.02
2023-02-18T02:42:26.612Z,31.67
2023-02-18T02:45:45.558Z,32.22
2023-02-18T02:48:53.472Z,34.22
2023-02-18T02:52:04.933Z,28.55
2023-02-18T02:55:14.129Z,26.35
2023-02-18T02:58:21.649Z,29.75
2023-02-18T03:01:27.786Z,34.55
2023-02-18T03:05:11.999Z,31.05
2023-02-18T03:08:46.316Z,26.63
2023-02-18T03:11:54.679Z,32.60
2023-02-18T03:15:17.438Z,33.17
2023-02-18T03:18:29.031Z,27.52
2023-02-18T03:21:39.395Z,30.33
2023-02-18T03:24:46.958Z,33.42
2023-02-18T03:27:57.463Z,77.90
2023-02-18T03:31:11.037Z,147.15
2023-02-18T03:34:21.150Z,26.25
2023-02-18T03:37:25.430Z,33.03
2023-02-18T03:40:33.841Z,23.02
2023-02-18T03:43:42.551Z,32.10
2023-02-18T03:49:51.914Z,25.20
2023-02-18T03:52:55.825Z,33.13
2023-02-18T03:56:00.188Z,26.20
2023-02-18T03:59:05.452Z,21.33
2023-02-18T04:02:09.535Z,22.52
2023-02-18T04:05:14.568Z,25.05
2023-02-18T04:08:19.021Z,17.75
2023-02-18T04:11:23.450Z,18.90
2023-02-18T04:14:27.886Z,21.80
2023-02-18T04:17:33.348Z,27.70
2023-02-18T04:20:38.262Z,20.40
2023-02-18T04:23:42.676Z,19.23
2023-02-18T04:26:47.003Z,21.58
2023-02-18T04:29:51.625Z,28.27
2023-02-18T04:32:56.060Z,40.60
2023-02-18T04:36:00.285Z,23.60
2023-02-18T04:39:04.902Z,23.50
2023-02-18T04:42:11.068Z,21.05
2023-02-18T04:45:15.616Z,18.10
2023-02-18T04:48:20.049Z,40.67
2023-02-18T04:51:24.057Z,18.30
2023-02-18T04:54:28.273Z,15.10
2023-02-18T04:57:32.275Z,7.72
2023-02-18T05:00:36.652Z,8.63
2023-02-18T05:03:41.210Z,8.60
2023-02-18T05:06:45.578Z,10.05
2023-02-18T05:09:49.483Z,9.15
2023-02-18T05:12:53.612Z,8.80
2023-02-18T05:15:57.571Z,9.63
2023-02-18T05:19:01.799Z,11.32
2023-02-18T05:22:06.254Z,12.23
2023-02-18T05:25:11.183Z,13.18
2023-02-18T05:28:16.328Z,17.50
2023-02-18T05:31:21.950Z,12.85
2023-02-18T05:34:26.405Z,15.18
2023-02-18T05:37:32.837Z,19.50
2023-02-18T05:40:37.573Z,11.07
2023-02-18T05:44:00.626Z,23.52
2023-02-18T05:47:11.722Z,16.52
2023-02-18T05:50:16.039Z,13.63
2023-02-18T05:53:20.816Z,15.98
2023-02-18T05:56:25.373Z,14.50
2023-02-18T05:59:30.260Z,12.93
2023-02-18T06:02:34.696Z,17.10
2023-02-18T06:05:38.996Z,19.48
2023-02-18T06:08:43.604Z,14.75
2023-02-18T06:11:48.016Z,17.02
2023-02-18T06:14:52.495Z,17.05
2023-02-18T06:17:56.800Z,21.23
2023-02-18T06:21:01.236Z,15.68
2023-02-18T06:24:05.516Z,22.33
2023-02-18T06:27:09.712Z,20.88
2023-02-18T06:30:14.442Z,41.88
2023-02-18T06:33:19.330Z,15.00
2023-02-18T06:36:23.452Z,36.30
2023-02-18T06:39:27.713Z,15.38
2023-02-18T06:42:32.122Z,21.90
2023-02-18T06:45:36.359Z,14.80
2023-02-18T06:48:40.923Z,15.57
2023-02-18T06:51:45.187Z,16.58
2023-02-18T06:54:49.071Z,16.27
2023-02-18T06:57:57.575Z,16.27
2023-02-18T07:01:01.737Z,16.58
2023-02-18T07:04:06.036Z,21.42
2023-02-18T07:07:10.180Z,72.18
2023-02-18T07:10:14.754Z,47.20
2023-02-18T07:13:19.382Z,16.17
2023-02-18T07:16:23.300Z,109.93
2023-02-18T07:19:27.307Z,25.42
2023-02-18T07:22:31.823Z,160.60
2023-02-18T07:25:35.819Z,21.60
2023-02-18T07:28:40.899Z,107.78
2023-02-18T07:31:45.527Z,24.98
2023-02-18T07:34:49.931Z,17.50
2023-02-18T07:37:54.160Z,27.30
2023-02-18T07:41:00.268Z,27.23
2023-02-18T07:44:05.020Z,21.15
2023-02-18T07:47:13.300Z,18.67
2023-02-18T07:50:17.333Z,21.85
2023-02-18T07:53:21.858Z,36.38
2023-02-18T07:56:26.353Z,130.38
2023-02-18T07:59:30.892Z,23.88
2023-02-18T08:02:34.943Z,43.28
2023-02-18T08:05:39.306Z,62.22
2023-02-18T08:08:43.689Z,33.03
2023-02-18T08:11:47.825Z,37.58
2023-02-18T08:14:52.211Z,31.50
2023-02-18T08:17:56.669Z,44.05
2023-02-18T08:21:00.757Z,40.33
2023-02-18T08:24:05.041Z,43.60
2023-02-18T08:27:09.445Z,36.25
2023-02-18T08:30:14.436Z,45.75
2023-02-18T08:33:20.410Z,122.63
2023-02-18T08:36:24.839Z,188.40
2023-02-18T08:39:28.807Z,35.17
2023-02-18T08:42:33.274Z,46.80
2023-02-18T08:45:42.088Z,43.28
2023-02-18T08:48:49.251Z,39.63
2023-02-18T08:51:56.663Z,37.08
2023-02-18T08:55:01.731Z,34.50
2023-02-18T08:58:07.854Z,21.90
2023-02-18T09:01:16.229Z,47.20
2023-02-18T09:04:25.735Z,37.47
2023-02-18T09:07:30.068Z,38.55
2023-02-18T09:10:34.446Z,36.92
2023-02-18T09:13:38.688Z,63.33
2023-02-18T09:16:43.816Z,54.95
2023-02-18T09:19:48.162Z,30.88
2023-02-18T09:22:56.303Z,23.58
2023-02-18T09:26:01.867Z,20.13
2023-02-18T09:29:06.203Z,22.02
2023-02-18T09:32:19.968Z,21.88
2023-02-18T09:35:32.751Z,22.95
2023-02-18T09:38:37.802Z,54.38
2023-02-18T09:41:56.273Z,99.72
2023-02-18T09:45:04.396Z,117.95
2023-02-18T09:48:11.093Z,54.53
2023-02-18T09:51:17.297Z,29.63
2023-02-18T09:54:22.164Z,21.13
2023-02-18T09:57:48.782Z,20.65
2023-02-18T10:01:04.492Z,20.33
2023-02-18T10:04:24.784Z,19.10
2023-02-18T10:07:34.490Z,24.70
2023-02-18T10:10:46.236Z,22.45
2023-02-18T10:13:51.820Z,37.08
2023-02-18T10:16:56.414Z,37.83
2023-02-18T10:20:04.635Z,40.72
2023-02-18T10:23:13.903Z,56.47
2023-02-18T10:26:20.456Z,50.53
2023-02-18T10:29:26.220Z,52.08
2023-02-18T10:36:20.182Z,59.13
2023-02-18T10:39:33.823Z,117.97
2023-02-18T10:43:15.794Z,143.38
2023-02-18T10:46:29.979Z,138.43
2023-02-18T10:49:55.162Z,114.43
2023-02-18T10:53:04.499Z,97.60
2023-02-18T10:56:13.131Z,150.85
2023-02-18T10:59:23.396Z,145.35
2023-02-18T11:02:33.693Z,120.10
2023-02-18T11:05:38.519Z,183.07
2023-02-18T11:08:47.548Z,171.77
2023-02-18T11:12:01.349Z,202.10
2023-02-18T11:15:11.591Z,226.50
2023-02-18T11:18:39.572Z,412.83
2023-02-18T11:21:43.984Z,297.38
2023-02-18T11:24:51.464Z,254.95
2023-02-18T11:28:05.118Z,254.13
2023-02-18T11:31:11.477Z,243.30
2023-02-18T11:34:22.428Z,262.92
2023-02-18T11:37:27.516Z,239.45
2023-02-18T11:40:37.214Z,313.83
2023-02-18T11:43:48.078Z,291.65
2023-02-18T11:47:29.150Z,315.42
2023-02-18T11:50:34.956Z,266.63
2023-02-18T11:53:40.179Z,255.75
2023-02-18T11:57:00.497Z,255.05
2023-02-18T12:00:16.525Z,217.55
2023-02-18T12:06:43.792Z,233.13
2023-02-18T12:09:57.355Z,309.38
2023-02-18T12:13:18.450Z,296.95
2023-02-18T12:16:28.888Z,282.63
2023-02-18T12:19:59.927Z,333.02
2023-02-18T12:23:19.559Z,330.10
2023-02-18T12:26:46.982Z,276.95
2023-02-18T12:30:18.604Z,287.50
2023-02-18T12:34:04.211Z,277.60
2023-02-18T12:37:30.055Z,266.35
2023-02-18T12:41:03.647Z,235.70
2023-02-18T12:44:38.596Z,200.48
2023-02-18T12:48:08.948Z,191.45
2023-02-18T12:51:51.807Z,124.97
2023-02-18T12:55:28.836Z,137.55
2023-02-18T12:59:09.273Z,739.40
2023-02-18T13:02:19.835Z,196.88
2023-02-18T13:05:42.303Z,153.30
2023-02-18T13:08:53.831Z,118.97
2023-02-18T13:12:09.683Z,151.27
2023-02-18T13:15:30.464Z,109.68
2023-02-18T13:18:40.965Z,71.95
2023-02-18T13:21:47.518Z,55.45
2023-02-18T13:24:55.445Z,69.65
2023-02-18T13:28:28.513Z,102.22
2023-02-18T13:32:04.065Z,71.28
2023-02-18T13:35:14.573Z,74.47
2023-02-18T13:38:29.945Z,62.38
2023-02-18T13:41:41.325Z,60.03
2023-02-18T13:44:57.965Z,63.60
2023-02-18T13:48:03.535Z,65.53
2023-02-18T13:54:26.153Z,50.42
2023-02-18T13:57:30.298Z,420.63
2023-02-18T14:00:41.700Z,337.63
2023-02-18T14:03:46.992Z,230.52
2023-02-18T14:07:20.064Z,180.38
2023-02-18T14:10:33.370Z,105.22
2023-02-18T14:13:51.363Z,91.93
2023-02-18T14:17:34.343Z,106.13
2023-02-18T14:20:38.764Z,123.05
2023-02-18T14:23:46.178Z,129.60
2023-02-18T14:26:51.203Z,182.23
2023-02-18T14:29:56.071Z,157.20
2023-02-18T14:33:02.810Z,147.25
2023-02-18T14:36:17.078Z,173.13
2023-02-18T14:39:48.996Z,144.50
2023-02-18T14:43:05.870Z,103.72
2023-02-18T14:46:22.697Z,121.07
2023-02-18T14:49:28.554Z,65.43
2023-02-18T14:53:01.000Z,68.60
2023-02-18T14:56:09.104Z,72.10
2023-02-18T15:02:56.428Z,102.50
2023-02-18T15:06:00.705Z,127.15
2023-02-18T15:09:25.282Z,114.63
2023-02-18T15:12:29.971Z,115.00
2023-02-18T15:15:37.030Z,126.07
2023-02-18T15:18:58.196Z,98.30
2023-02-18T15:22:02.448Z,117.35
2023-02-18T15:25:08.572Z,103.70
2023-02-18T15:28:31.461Z,121.93
2023-02-18T15:31:40.838Z,122.32
2023-02-18T15:34:46.236Z,128.65
2023-02-18T15:37:55.842Z,138.45
2023-02-18T15:41:01.579Z,168.18
2023-02-18T15:44:09.140Z,127.30
2023-02-18T15:47:14.874Z,135.40
2023-02-18T15:50:23.625Z,89.78
2023-02-18T15:53:28.162Z,92.43
2023-02-18T15:56:39.172Z,103.30
2023-02-18T15:59:55.138Z,108.28
2023-02-18T16:03:24.289Z,105.80
2023-02-18T16:06:32.850Z,108.13
2023-02-18T16:09:41.266Z,91.97
2023-02-18T16:12:51.403Z,83.43
2023-02-18T16:15:56.176Z,94.45
2023-02-18T16:19:01.135Z,87.35
2023-02-18T16:22:08.247Z,106.50
2023-02-18T16:25:17.706Z,95.85
2023-02-18T16:28:31.442Z,105.78
2023-02-18T16:31:35.485Z,113.60
2023-02-18T16:34:39.856Z,133.65
2023-02-18T16:37:46.759Z,109.43
2023-02-18T16:40:53.152Z,100.97
2023-02-18T16:43:58.623Z,102.35
2023-02-18T16:47:03.390Z,103.85
2023-02-18T16:50:15.220Z,111.03
2023-02-18T16:53:20.822Z,112.50
2023-02-18T16:56:33.077Z,133.73
2023-02-18T16:59:37.514Z,162.32
2023-02-18T17:02:42.375Z,138.03
2023-02-18T17:05:46.971Z,130.38
2023-02-18T17:08:51.890Z,136.02
2023-02-18T17:11:59.111Z,169.85
2023-02-18T17:15:13.751Z,136.88
2023-02-18T17:18:21.463Z,182.63
2023-02-18T17:21:27.055Z,140.77
2023-02-18T17:24:31.590Z,141.05
2023-02-18T17:27:39.064Z,133.52
2023-02-18T17:30:47.429Z,173.52
2023-02-18T17:33:56.476Z,82.20
2023-02-18T17:37:00.740Z,88.53
2023-02-18T17:40:06.990Z,75.07
2023-02-18T17:43:16.988Z,63.17
2023-02-18T17:46:21.900Z,88.75
2023-02-18T17:49:26.380Z,69.50
2023-02-18T17:52:35.383Z,110.47
2023-02-18T17:55:40.811Z,102.57
2023-02-18T17:58:49.505Z,92.53
2023-02-18T18:01:53.822Z,97.25
2023-02-18T18:04:58.395Z,104.33
2023-02-18T18:08:07.149Z,89.40
2023-02-18T18:11:18.232Z,65.15
2023-02-18T18:14:22.373Z,81.50
2023-02-18T18:17:27.144Z,68.43
2023-02-18T18:20:33.958Z,66.55
2023-02-18T18:23:38.275Z,88.65
2023-02-18T18:26:42.531Z,86.68
2023-02-18T18:29:46.872Z,93.80
2023-02-18T18:32:52.312Z,92.63
2023-02-18T18:35:58.419Z,97.03
2023-02-18T18:39:02.918Z,120.68
2023-02-18T18:42:08.100Z,98.50
2023-02-18T18:45:25.847Z,149.75
2023-02-18T18:48:30.513Z,221.05
2023-02-18T18:51:35.184Z,315.42
2023-02-18T18:54:42.187Z,182.45
2023-02-18T18:57:47.263Z,91.05
2023-02-18T19:00:57.039Z,265.83
2023-02-18T19:04:01.494Z,180.85
2023-02-18T19:07:05.940Z,205.10
2023-02-18T19:10:10.397Z,239.98
2023-02-18T19:13:23.327Z,194.05
2023-02-18T19:16:40.277Z,153.48
2023-02-18T19:19:53.133Z,165.68
2023-02-18T19:22:57.624Z,937.45
2023-02-18T19:26:02.327Z,445.85
2023-02-18T19:29:06.732Z,232.90
2023-02-18T19:32:10.913Z,262.23
2023-02-18T19:35:15.385Z,209.10
2023-02-18T19:38:20.126Z,64.75
2023-02-18T19:41:24.695Z,80.85
2023-02-18T19:44:32.951Z,60.05
2023-02-18T19:47:36.907Z,87.40
2023-02-18T19:50:45.554Z,58.97
2023-02-18T19:53:50.263Z,46.50
2023-02-18T19:56:54.595Z,76.43
2023-02-18T19:59:58.500Z,67.88
2023-02-18T20:03:02.795Z,51.53
2023-02-18T20:06:07.455Z,81.90
2023-02-18T20:09:11.794Z,63.88
2023-02-18T20:12:16.493Z,54.15
2023-02-18T20:15:21.503Z,44.97
2023-02-18T20:18:25.949Z,53.45
2023-02-18T20:21:31.466Z,110.45
2023-02-18T20:24:35.774Z,60.67
2023-02-18T20:27:54.451Z,53.65
2023-02-18T20:31:12.363Z,45.03
2023-02-18T20:34:17.131Z,52.92
2023-02-18T20:37:21.759Z,41.22
2023-02-18T20:40:25.951Z,29.60
2023-02-18T20:43:32.582Z,29.17
2023-02-18T20:46:38.667Z,42.50
2023-02-18T20:49:43.662Z,39.58
2023-02-18T20:52:47.827Z,27.30
2023-02-18T20:55:52.183Z,27.27
2023-02-18T20:58:56.586Z,18.52
2023-02-18T21:02:01.204Z,23.93
2023-02-18T21:05:05.800Z,33.88
2023-02-18T21:08:10.199Z,31.15
2023-02-18T21:11:24.809Z,36.10
2023-02-18T21:14:29.210Z,53.22
2023-02-18T21:17:33.545Z,42.55
2023-02-18T21:20:37.893Z,48.78
2023-02-18T21:23:43.124Z,33.47
2023-02-18T21:29:51.116Z,16.77
2023-02-18T21:32:58.483Z,109.25
2023-02-18T21:36:04.136Z,131.00
2023-02-18T21:39:11.148Z,176.68
2023-02-18T21:42:15.539Z,165.73
2023-02-18T21:45:19.919Z,157.63
2023-02-18T21:48:42.544Z,135.37
2023-02-18T21:51:58.058Z,135.70
2023-02-18T21:55:02.541Z,120.03
2023-02-18T21:58:06.960Z,113.32
2023-02-18T22:01:11.684Z,179.57
2023-02-18T22:04:16.793Z,123.47
2023-02-18T22:07:23.609Z,114.57
2023-02-18T22:10:27.906Z,87.15
2023-02-18T22:13:32.088Z,65.78
2023-02-18T22:16:36.364Z,82.82
2023-02-18T22:19:41.076Z,57.10
2023-02-18T22:23:10.319Z,43.47
2023-02-18T22:26:27.356Z,58.13
2023-02-18T22:29:33.373Z,44.30
2023-02-18T22:32:37.652Z,72.75
2023-02-18T22:35:44.204Z,72.68
2023-02-18T22:38:52.090Z,64.20
2023-02-18T22:41:59.318Z,45.03
2023-02-18T22:45:06.274Z,61.95
2023-02-18T22:48:10.638Z,63.15
2023-02-18T22:51:21.107Z,43.15
2023-02-18T22:54:25.390Z,46.13
2023-02-18T22:57:29.499Z,68.50
2023-02-18T23:00:34.548Z,67.65
2023-02-18T23:03:38.715Z,83.43
2023-02-18T23:06:46.243Z,122.97
2023-02-18T23:09:50.607Z,107.60
2023-02-18T23:12:56.305Z,66.15
2023-02-18T23:16:02.468Z,80.40
2023-02-18T23:19:07.033Z,66.05
2023-02-18T23:22:13.148Z,74.57
2023-02-18T23:25:18.822Z,99.03
2023-02-18T23:28:23.403Z,91.97
2023-02-18T23:31:28.942Z,130.82
2023-02-18T23:34:35.539Z,89.78
2023-02-18T23:38:00.824Z,89.72
2023-02-18T23:41:08.051Z,121.28
2023-02-18T23:44:15.371Z,122.88
2023-02-18T23:47:19.921Z,80.30
2023-02-18T23:50:24.435Z,87.45
2023-02-18T23:53:33.522Z,137.30
2023-02-18T23:56:41.566Z,101.60
2023-02-18T23:59:49.605Z,82.10
